Marco Polo — C6JZ7 — position and weather

sailwx.info

Track history (hours):
 
Tides and Currents Weather Stations Pressure Air Temp Water Temp Dewpoint Dewpoint Depression Visibility Wind Speed Wind Dir Waves Ship Positions

Marco Polo

Operator: Orient Lines

Last reported at 2016-Jan-28 04:05 UTC. Time now 2016-Feb-09 18:00 UTC.
Position S 34°51' W 057°22'.
Warning: this ship's position is 12 days out of date.

Type: Ship. MMSI: 308691456.

Date/timePositionNaut miles runAvg speedWind from/ knotsBaromVisibWave heightAir tempDewpointWater temp
2016-Jan-28 04:05S 34°51' W 057°22'12 7.5
2016-Jan-28 02:25S 34°46' W 057°35'8 7.0
2016-Jan-28 01:16S 34°44' W 057°45'7 9.2
2016-Jan-28 00:33S 34°43' W 057°53'1210.6
2016-Jan-27 23:22S 34°38' W 058°07'14 0.9
2016-Jan-27 07:33S 34°43' W 057°51'  
2016-Jan-20 18:24S 14°47' W 038°59'2 2.6
2016-Jan-20 17:31S 14°47' W 039°02'0 0.0
2016-Jan-20 16:33S 14°47' W 039°02'0 0.0
2016-Jan-20 15:33S 14°47' W 039°02'0 0.0
2016-Jan-20 14:29S 14°47' W 039°02'0 0.0
2016-Jan-20 13:31S 14°47' W 039°02'0 0.0
2016-Jan-20 12:31S 14°47' W 039°02'0 0.0
2016-Jan-20 11:33S 14°47' W 039°02'0 0.0
2016-Jan-20 10:33S 14°47' W 039°02'  
Track history (hours):
 
Tides and Currents Weather Stations Pressure Air Temp Water Temp Dewpoint Dewpoint Depression Visibility Wind Speed Wind Dir Waves Ship Positions

Marco Polo

Operator: Orient Lines

Last reported at 2016-Jan-28 04:05 UTC. Time now 2016-Feb-09 18:00 UTC.
Position S 34°51' W 057°22'.
Warning: this ship's position is 12 days out of date.

Type: Ship. MMSI: 308691456.

Date/timePositionNaut miles runAvg speedWind from/ knotsBaromVisibWave heightAir tempDewpointWater temp
2016-Jan-28 04:05S 34°51' W 057°22'12 7.5
2016-Jan-28 02:25S 34°46' W 057°35'8 7.0
2016-Jan-28 01:16S 34°44' W 057°45'7 9.2
2016-Jan-28 00:33S 34°43' W 057°53'1210.6
2016-Jan-27 23:22S 34°38' W 058°07'14 0.9
2016-Jan-27 07:33S 34°43' W 057°51'  
2016-Jan-20 18:24S 14°47' W 038°59'2 2.6
2016-Jan-20 17:31S 14°47' W 039°02'0 0.0
2016-Jan-20 16:33S 14°47' W 039°02'0 0.0
2016-Jan-20 15:33S 14°47' W 039°02'0 0.0
2016-Jan-20 14:29S 14°47' W 039°02'0 0.0
2016-Jan-20 13:31S 14°47' W 039°02'0 0.0
2016-Jan-20 12:31S 14°47' W 039°02'0 0.0
2016-Jan-20 11:33S 14°47' W 039°02'0 0.0
2016-Jan-20 10:33S 14°47' W 039°02'  

Dump ship's entire track history